Portageville, New York
Current Conditions -  °F | °C
As of 6:54 PM on Sunday 21 Dec 2014 (Local Time) from KDSV Reporting Station
Overcast Overcast  
Wind Chill: 32°   Ceiling: 2700
Heat Index: 32°   Visibility: 10mi
Dew Point: 21°   Wind: 3mph
Humidity: 64%   Direction: 120°ESE
Pressure: 30.31"   Gusts: NA
Location:  42.57°N, 78.04°W
Report Text: KDSV 212354Z AUTO 12003KT 10SM OVC027 00/M06 A3031 RMK AO2 SLP281 T00001061 10006 21006 53007
Loading
Personal Weather Stations






























Interactive Weather Map New forecast layout! Learn more

10-Day Weather Forecast

Advertisements
Track Severe Weather on mobile